sensor_id;sensor_type;location;lat;lon;timestamp;P1;durP1;ratioP1;P2;durP2;ratioP2
76477;SDS011;65309;49.790;18.972;2023-04-07T00:00:22;24.65;;;14.27;;
76477;SDS011;65309;49.790;18.972;2023-04-07T00:05:45;29.95;;;17.35;;
76477;SDS011;65309;49.790;18.972;2023-04-07T00:10:47;21.90;;;12.45;;
76477;SDS011;65309;49.790;18.972;2023-04-07T00:15:50;32.38;;;15.90;;
76477;SDS011;65309;49.790;18.972;2023-04-07T00:20:52;17.30;;;11.07;;
76477;SDS011;65309;49.790;18.972;2023-04-07T00:25:54;30.17;;;13.52;;
76477;SDS011;65309;49.790;18.972;2023-04-07T00:30:57;26.23;;;14.05;;
76477;SDS011;65309;49.790;18.972;2023-04-07T00:35:59;16.98;;;10.73;;
76477;SDS011;65309;49.790;18.972;2023-04-07T00:41:02;23.33;;;13.07;;
76477;SDS011;65309;49.790;18.972;2023-04-07T00:46:05;41.75;;;22.63;;
76477;SDS011;65309;49.790;18.972;2023-04-07T00:51:07;23.45;;;14.82;;
76477;SDS011;65309;49.790;18.972;2023-04-07T00:56:09;16.52;;;11.23;;
76477;SDS011;65309;49.790;18.972;2023-04-07T01:01:14;30.65;;;16.80;;
76477;SDS011;65309;49.790;18.972;2023-04-07T01:06:19;38.35;;;17.83;;
76477;SDS011;65309;49.790;18.972;2023-04-07T01:11:26;23.92;;;14.60;;
76477;SDS011;65309;49.790;18.972;2023-04-07T01:16:34;22.00;;;14.57;;
76477;SDS011;65309;49.790;18.972;2023-04-07T01:21:40;35.60;;;19.00;;
76477;SDS011;65309;49.790;18.972;2023-04-07T01:26:44;28.48;;;14.98;;
76477;SDS011;65309;49.790;18.972;2023-04-07T01:31:49;26.48;;;15.40;;
76477;SDS011;65309;49.790;18.972;2023-04-07T01:36:52;16.50;;;9.35;;
76477;SDS011;65309;49.790;18.972;2023-04-07T01:41:55;16.90;;;9.30;;
76477;SDS011;65309;49.790;18.972;2023-04-07T01:47:00;27.25;;;14.90;;
76477;SDS011;65309;49.790;18.972;2023-04-07T01:52:03;18.05;;;10.70;;
76477;SDS011;65309;49.790;18.972;2023-04-07T01:57:06;15.15;;;10.75;;
76477;SDS011;65309;49.790;18.972;2023-04-07T02:02:09;27.55;;;14.23;;
76477;SDS011;65309;49.790;18.972;2023-04-07T02:07:13;28.90;;;16.33;;
76477;SDS011;65309;49.790;18.972;2023-04-07T02:12:19;32.28;;;20.00;;
76477;SDS011;65309;49.790;18.972;2023-04-07T02:17:26;39.50;;;21.02;;
76477;SDS011;65309;49.790;18.972;2023-04-07T02:22:30;29.67;;;17.52;;
76477;SDS011;65309;49.790;18.972;2023-04-07T02:27:33;41.47;;;19.33;;
76477;SDS011;65309;49.790;18.972;2023-04-07T02:32:36;36.67;;;18.55;;
76477;SDS011;65309;49.790;18.972;2023-04-07T02:38:37;28.73;;;14.60;;
76477;SDS011;65309;49.790;18.972;2023-04-07T02:44:37;34.03;;;18.48;;
76477;SDS011;65309;49.790;18.972;2023-04-07T02:50:39;24.33;;;13.85;;
76477;SDS011;65309;49.790;18.972;2023-04-07T02:56:38;32.65;;;17.17;;
76477;SDS011;65309;49.790;18.972;2023-04-07T03:01:40;17.38;;;11.20;;
76477;SDS011;65309;49.790;18.972;2023-04-07T03:06:43;31.30;;;16.02;;
76477;SDS011;65309;49.790;18.972;2023-04-07T03:11:46;31.55;;;18.08;;
76477;SDS011;65309;49.790;18.972;2023-04-07T03:16:48;38.80;;;18.17;;
76477;SDS011;65309;49.790;18.972;2023-04-07T03:22:03;15.95;;;10.07;;
76477;SDS011;65309;49.790;18.972;2023-04-07T03:28:04;19.88;;;10.30;;
76477;SDS011;65309;49.790;18.972;2023-04-07T03:34:04;28.15;;;13.02;;
76477;SDS011;65309;49.790;18.972;2023-04-07T03:39:08;16.50;;;9.27;;
76477;SDS011;65309;49.790;18.972;2023-04-07T03:44:10;18.38;;;10.93;;
76477;SDS011;65309;49.790;18.972;2023-04-07T03:49:14;23.98;;;13.35;;
76477;SDS011;65309;49.790;18.972;2023-04-07T03:54:18;12.52;;;7.88;;
76477;SDS011;65309;49.790;18.972;2023-04-07T04:00:18;19.80;;;11.00;;
76477;SDS011;65309;49.790;18.972;2023-04-07T04:06:19;17.85;;;10.45;;
76477;SDS011;65309;49.790;18.972;2023-04-07T04:12:18;19.35;;;10.82;;
76477;SDS011;65309;49.790;18.972;2023-04-07T04:17:20;24.38;;;12.77;;
76477;SDS011;65309;49.790;18.972;2023-04-07T04:23:20;19.50;;;9.93;;
76477;SDS011;65309;49.790;18.972;2023-04-07T04:29:22;19.67;;;9.73;;
76477;SDS011;65309;49.790;18.972;2023-04-07T04:35:23;26.98;;;14.65;;
76477;SDS011;65309;49.790;18.972;2023-04-07T04:41:23;13.02;;;8.82;;
76477;SDS011;65309;49.790;18.972;2023-04-07T04:47:25;12.95;;;7.95;;
76477;SDS011;65309;49.790;18.972;2023-04-07T04:53:26;16.23;;;10.52;;
76477;SDS011;65309;49.790;18.972;2023-04-07T04:59:26;18.52;;;12.10;;
76477;SDS011;65309;49.790;18.972;2023-04-07T05:05:28;15.73;;;10.35;;
76477;SDS011;65309;49.790;18.972;2023-04-07T05:11:29;14.23;;;9.65;;
76477;SDS011;65309;49.790;18.972;2023-04-07T05:17:29;14.23;;;6.97;;
76477;SDS011;65309;49.790;18.972;2023-04-07T05:23:31;13.25;;;9.10;;
76477;SDS011;65309;49.790;18.972;2023-04-07T05:29:31;9.57;;;6.97;;
76477;SDS011;65309;49.790;18.972;2023-04-07T05:35:32;13.10;;;7.72;;
76477;SDS011;65309;49.790;18.972;2023-04-07T05:41:34;16.25;;;9.35;;
76477;SDS011;65309;49.790;18.972;2023-04-07T05:47:34;15.00;;;7.45;;
76477;SDS011;65309;49.790;18.972;2023-04-07T05:53:36;20.42;;;12.38;;
76477;SDS011;65309;49.790;18.972;2023-04-07T05:59:38;22.48;;;9.98;;
76477;SDS011;65309;49.790;18.972;2023-04-07T06:05:38;20.00;;;10.65;;
76477;SDS011;65309;49.790;18.972;2023-04-07T06:11:39;11.20;;;7.18;;
76477;SDS011;65309;49.790;18.972;2023-04-07T06:17:40;20.55;;;9.50;;
76477;SDS011;65309;49.790;18.972;2023-04-07T06:23:41;12.25;;;7.80;;
76477;SDS011;65309;49.790;18.972;2023-04-07T06:29:42;17.48;;;9.40;;
76477;SDS011;65309;49.790;18.972;2023-04-07T06:35:43;15.48;;;9.68;;
76477;SDS011;65309;49.790;18.972;2023-04-07T06:40:45;13.50;;;8.43;;
76477;SDS011;65309;49.790;18.972;2023-04-07T06:45:47;16.52;;;8.98;;
76477;SDS011;65309;49.790;18.972;2023-04-07T06:51:52;14.65;;;9.30;;
76477;SDS011;65309;49.790;18.972;2023-04-07T06:57:52;11.57;;;7.60;;
76477;SDS011;65309;49.790;18.972;2023-04-07T07:03:53;18.85;;;8.30;;
76477;SDS011;65309;49.790;18.972;2023-04-07T07:09:55;17.40;;;9.63;;
76477;SDS011;65309;49.790;18.972;2023-04-07T07:15:56;15.38;;;8.35;;
76477;SDS011;65309;49.790;18.972;2023-04-07T07:21:56;17.63;;;9.23;;
76477;SDS011;65309;49.790;18.972;2023-04-07T07:27:59;12.73;;;6.70;;
76477;SDS011;65309;49.790;18.972;2023-04-07T07:33:59;17.52;;;9.35;;
76477;SDS011;65309;49.790;18.972;2023-04-07T07:40:00;18.17;;;10.43;;
76477;SDS011;65309;49.790;18.972;2023-04-07T07:46:01;9.20;;;5.32;;
76477;SDS011;65309;49.790;18.972;2023-04-07T07:52:02;15.23;;;9.57;;
76477;SDS011;65309;49.790;18.972;2023-04-07T07:58:03;18.73;;;10.77;;
76477;SDS011;65309;49.790;18.972;2023-04-07T08:04:05;17.27;;;9.20;;
76477;SDS011;65309;49.790;18.972;2023-04-07T08:10:06;20.33;;;12.02;;
76477;SDS011;65309;49.790;18.972;2023-04-07T08:15:25;12.75;;;6.95;;
76477;SDS011;65309;49.790;18.972;2023-04-07T08:20:29;11.95;;;7.80;;
76477;SDS011;65309;49.790;18.972;2023-04-07T08:25:31;19.38;;;11.52;;
76477;SDS011;65309;49.790;18.972;2023-04-07T08:30:33;10.40;;;6.75;;
76477;SDS011;65309;49.790;18.972;2023-04-07T08:35:36;22.83;;;10.93;;
76477;SDS011;65309;49.790;18.972;2023-04-07T08:40:38;21.77;;;9.07;;
76477;SDS011;65309;49.790;18.972;2023-04-07T08:45:41;16.30;;;9.98;;
76477;SDS011;65309;49.790;18.972;2023-04-07T08:50:46;17.88;;;10.85;;
76477;SDS011;65309;49.790;18.972;2023-04-07T08:55:53;11.90;;;9.35;;
76477;SDS011;65309;49.790;18.972;2023-04-07T09:00:56;26.75;;;14.70;;
76477;SDS011;65309;49.790;18.972;2023-04-07T09:06:00;14.73;;;7.80;;
76477;SDS011;65309;49.790;18.972;2023-04-07T09:11:03;7.47;;;6.63;;
76477;SDS011;65309;49.790;18.972;2023-04-07T09:16:05;10.95;;;7.00;;
76477;SDS011;65309;49.790;18.972;2023-04-07T09:21:09;15.98;;;9.32;;
76477;SDS011;65309;49.790;18.972;2023-04-07T09:26:21;20.33;;;9.18;;
76477;SDS011;65309;49.790;18.972;2023-04-07T09:31:42;20.17;;;11.38;;
76477;SDS011;65309;49.790;18.972;2023-04-07T09:36:46;28.55;;;12.23;;
76477;SDS011;65309;49.790;18.972;2023-04-07T09:41:49;14.35;;;10.05;;
76477;SDS011;65309;49.790;18.972;2023-04-07T09:46:52;9.73;;;6.00;;
76477;SDS011;65309;49.790;18.972;2023-04-07T09:51:57;12.88;;;8.18;;
76477;SDS011;65309;49.790;18.972;2023-04-07T09:57:00;12.00;;;7.18;;
76477;SDS011;65309;49.790;18.972;2023-04-07T10:02:04;22.95;;;11.38;;
76477;SDS011;65309;49.790;18.972;2023-04-07T10:07:08;9.73;;;6.13;;
76477;SDS011;65309;49.790;18.972;2023-04-07T10:12:10;17.15;;;10.82;;
76477;SDS011;65309;49.790;18.972;2023-04-07T10:17:13;17.75;;;11.68;;
76477;SDS011;65309;49.790;18.972;2023-04-07T10:23:18;21.92;;;11.32;;
76477;SDS011;65309;49.790;18.972;2023-04-07T10:28:22;21.35;;;12.32;;
76477;SDS011;65309;49.790;18.972;2023-04-07T10:33:43;20.50;;;10.52;;
76477;SDS011;65309;49.790;18.972;2023-04-07T10:44:46;21.13;;;9.45;;
76477;SDS011;65309;49.790;18.972;2023-04-07T10:55:29;14.85;;;9.07;;
76477;SDS011;65309;49.790;18.972;2023-04-07T11:00:35;16.00;;;10.95;;
76477;SDS011;65309;49.790;18.972;2023-04-07T11:05:37;25.17;;;14.10;;
76477;SDS011;65309;49.790;18.972;2023-04-07T11:10:40;40.00;;;18.83;;
76477;SDS011;65309;49.790;18.972;2023-04-07T11:15:48;28.40;;;13.90;;
76477;SDS011;65309;49.790;18.972;2023-04-07T11:20:51;22.95;;;11.88;;
76477;SDS011;65309;49.790;18.972;2023-04-07T11:25:59;26.20;;;14.15;;
76477;SDS011;65309;49.790;18.972;2023-04-07T11:31:02;28.33;;;13.65;;
76477;SDS011;65309;49.790;18.972;2023-04-07T11:36:05;27.88;;;16.52;;
76477;SDS011;65309;49.790;18.972;2023-04-07T11:41:10;28.80;;;14.40;;
76477;SDS011;65309;49.790;18.972;2023-04-07T11:46:14;13.98;;;9.20;;
76477;SDS011;65309;49.790;18.972;2023-04-07T11:51:18;23.02;;;14.43;;
76477;SDS011;65309;49.790;18.972;2023-04-07T11:56:22;16.50;;;9.60;;
76477;SDS011;65309;49.790;18.972;2023-04-07T12:01:24;20.17;;;10.18;;
76477;SDS011;65309;49.790;18.972;2023-04-07T12:06:41;20.50;;;10.70;;
76477;SDS011;65309;49.790;18.972;2023-04-07T12:11:49;23.95;;;13.93;;
76477;SDS011;65309;49.790;18.972;2023-04-07T12:16:51;12.73;;;6.18;;
76477;SDS011;65309;49.790;18.972;2023-04-07T12:22:51;18.17;;;9.80;;
76477;SDS011;65309;49.790;18.972;2023-04-07T12:28:53;16.90;;;9.95;;
76477;SDS011;65309;49.790;18.972;2023-04-07T12:34:20;17.85;;;10.60;;
76477;SDS011;65309;49.790;18.972;2023-04-07T12:39:22;17.23;;;8.07;;
76477;SDS011;65309;49.790;18.972;2023-04-07T12:44:25;16.88;;;10.15;;
76477;SDS011;65309;49.790;18.972;2023-04-07T12:49:27;16.95;;;8.73;;
76477;SDS011;65309;49.790;18.972;2023-04-07T12:54:29;19.90;;;9.95;;
76477;SDS011;65309;49.790;18.972;2023-04-07T12:59:33;20.27;;;9.95;;
76477;SDS011;65309;49.790;18.972;2023-04-07T13:04:35;19.15;;;11.02;;
76477;SDS011;65309;49.790;18.972;2023-04-07T13:10:36;12.02;;;7.95;;
76477;SDS011;65309;49.790;18.972;2023-04-07T13:22:39;22.08;;;10.18;;
76477;SDS011;65309;49.790;18.972;2023-04-07T13:28:44;16.30;;;9.35;;
76477;SDS011;65309;49.790;18.972;2023-04-07T13:34:46;10.57;;;6.60;;
76477;SDS011;65309;49.790;18.972;2023-04-07T13:39:47;14.25;;;8.52;;
76477;SDS011;65309;49.790;18.972;2023-04-07T13:44:50;13.65;;;7.40;;
76477;SDS011;65309;49.790;18.972;2023-04-07T13:49:56;15.52;;;9.68;;
76477;SDS011;65309;49.790;18.972;2023-04-07T13:54:58;13.68;;;8.35;;
76477;SDS011;65309;49.790;18.972;2023-04-07T14:00:00;17.92;;;9.18;;
76477;SDS011;65309;49.790;18.972;2023-04-07T14:05:04;19.17;;;10.20;;
76477;SDS011;65309;49.790;18.972;2023-04-07T14:10:06;16.02;;;9.05;;
76477;SDS011;65309;49.790;18.972;2023-04-07T14:15:11;19.15;;;9.02;;
76477;SDS011;65309;49.790;18.972;2023-04-07T14:20:14;19.13;;;10.60;;
76477;SDS011;65309;49.790;18.972;2023-04-07T14:25:16;17.08;;;8.55;;
76477;SDS011;65309;49.790;18.972;2023-04-07T14:30:19;16.05;;;8.55;;
76477;SDS011;65309;49.790;18.972;2023-04-07T14:35:22;11.95;;;7.30;;
76477;SDS011;65309;49.790;18.972;2023-04-07T14:40:24;21.42;;;10.68;;
76477;SDS011;65309;49.790;18.972;2023-04-07T14:45:26;14.77;;;8.30;;
76477;SDS011;65309;49.790;18.972;2023-04-07T14:50:31;13.90;;;6.85;;
76477;SDS011;65309;49.790;18.972;2023-04-07T14:55:34;18.10;;;10.63;;
76477;SDS011;65309;49.790;18.972;2023-04-07T15:00:36;17.80;;;10.20;;
76477;SDS011;65309;49.790;18.972;2023-04-07T15:05:40;23.25;;;12.52;;
76477;SDS011;65309;49.790;18.972;2023-04-07T15:10:42;17.67;;;11.00;;
76477;SDS011;65309;49.790;18.972;2023-04-07T15:15:43;17.35;;;9.63;;
76477;SDS011;65309;49.790;18.972;2023-04-07T15:20:47;13.85;;;9.77;;
76477;SDS011;65309;49.790;18.972;2023-04-07T15:25:49;11.95;;;8.20;;
76477;SDS011;65309;49.790;18.972;2023-04-07T15:30:56;13.30;;;8.32;;
76477;SDS011;65309;49.790;18.972;2023-04-07T15:36:00;14.73;;;9.18;;
76477;SDS011;65309;49.790;18.972;2023-04-07T15:41:02;19.70;;;11.45;;
76477;SDS011;65309;49.790;18.972;2023-04-07T15:46:04;23.38;;;12.80;;
76477;SDS011;65309;49.790;18.972;2023-04-07T15:51:07;25.45;;;15.30;;
76477;SDS011;65309;49.790;18.972;2023-04-07T15:56:09;22.90;;;12.48;;
76477;SDS011;65309;49.790;18.972;2023-04-07T16:01:14;18.50;;;10.68;;
76477;SDS011;65309;49.790;18.972;2023-04-07T16:06:17;17.20;;;10.00;;
76477;SDS011;65309;49.790;18.972;2023-04-07T16:11:19;16.65;;;9.50;;
76477;SDS011;65309;49.790;18.972;2023-04-07T16:16:21;13.38;;;10.02;;
76477;SDS011;65309;49.790;18.972;2023-04-07T16:21:25;18.30;;;11.43;;
76477;SDS011;65309;49.790;18.972;2023-04-07T16:26:27;13.93;;;8.15;;
76477;SDS011;65309;49.790;18.972;2023-04-07T16:31:30;14.00;;;8.32;;
76477;SDS011;65309;49.790;18.972;2023-04-07T16:36:33;13.02;;;8.18;;
76477;SDS011;65309;49.790;18.972;2023-04-07T16:41:35;12.25;;;8.60;;
76477;SDS011;65309;49.790;18.972;2023-04-07T16:46:37;20.60;;;12.15;;
76477;SDS011;65309;49.790;18.972;2023-04-07T16:51:40;13.80;;;9.15;;
76477;SDS011;65309;49.790;18.972;2023-04-07T16:56:42;13.73;;;8.63;;
76477;SDS011;65309;49.790;18.972;2023-04-07T17:01:44;12.95;;;6.78;;
76477;SDS011;65309;49.790;18.972;2023-04-07T17:06:48;9.52;;;6.00;;
76477;SDS011;65309;49.790;18.972;2023-04-07T17:11:50;16.33;;;8.95;;
76477;SDS011;65309;49.790;18.972;2023-04-07T17:16:52;10.60;;;5.90;;
76477;SDS011;65309;49.790;18.972;2023-04-07T17:21:55;8.82;;;5.65;;
76477;SDS011;65309;49.790;18.972;2023-04-07T17:26:57;8.88;;;5.00;;
76477;SDS011;65309;49.790;18.972;2023-04-07T17:31:59;10.68;;;6.72;;
76477;SDS011;65309;49.790;18.972;2023-04-07T17:37:02;7.20;;;5.15;;
76477;SDS011;65309;49.790;18.972;2023-04-07T17:42:04;5.95;;;5.15;;
76477;SDS011;65309;49.790;18.972;2023-04-07T17:47:06;8.05;;;4.97;;
76477;SDS011;65309;49.790;18.972;2023-04-07T17:52:10;6.20;;;4.72;;
76477;SDS011;65309;49.790;18.972;2023-04-07T17:57:12;17.90;;;8.40;;
76477;SDS011;65309;49.790;18.972;2023-04-07T18:02:15;19.17;;;8.15;;
76477;SDS011;65309;49.790;18.972;2023-04-07T18:07:19;12.85;;;7.10;;
76477;SDS011;65309;49.790;18.972;2023-04-07T18:12:21;15.25;;;7.78;;
76477;SDS011;65309;49.790;18.972;2023-04-07T18:17:24;19.05;;;9.35;;
76477;SDS011;65309;49.790;18.972;2023-04-07T18:22:27;15.73;;;8.57;;
76477;SDS011;65309;49.790;18.972;2023-04-07T18:27:29;13.15;;;8.32;;
76477;SDS011;65309;49.790;18.972;2023-04-07T18:32:31;14.73;;;7.95;;
76477;SDS011;65309;49.790;18.972;2023-04-07T18:37:35;17.13;;;9.80;;
76477;SDS011;65309;49.790;18.972;2023-04-07T18:42:37;15.75;;;7.40;;
76477;SDS011;65309;49.790;18.972;2023-04-07T18:47:39;11.45;;;6.40;;
76477;SDS011;65309;49.790;18.972;2023-04-07T18:52:42;14.40;;;7.32;;
76477;SDS011;65309;49.790;18.972;2023-04-07T18:57:44;10.70;;;7.05;;
76477;SDS011;65309;49.790;18.972;2023-04-07T19:02:47;11.10;;;5.95;;
76477;SDS011;65309;49.790;18.972;2023-04-07T19:07:50;9.07;;;5.18;;
76477;SDS011;65309;49.790;18.972;2023-04-07T19:12:52;8.10;;;4.63;;
76477;SDS011;65309;49.790;18.972;2023-04-07T19:17:54;11.90;;;5.38;;
76477;SDS011;65309;49.790;18.972;2023-04-07T19:22:58;10.57;;;5.28;;
76477;SDS011;65309;49.790;18.972;2023-04-07T19:28:01;7.68;;;5.70;;
76477;SDS011;65309;49.790;18.972;2023-04-07T19:33:03;9.15;;;5.22;;
76477;SDS011;65309;49.790;18.972;2023-04-07T19:38:07;6.82;;;4.60;;
76477;SDS011;65309;49.790;18.972;2023-04-07T19:43:09;8.93;;;5.50;;
76477;SDS011;65309;49.790;18.972;2023-04-07T19:48:11;8.88;;;4.50;;
76477;SDS011;65309;49.790;18.972;2023-04-07T19:53:14;7.05;;;4.00;;
76477;SDS011;65309;49.790;18.972;2023-04-07T19:58:17;8.40;;;5.15;;
76477;SDS011;65309;49.790;18.972;2023-04-07T20:03:21;6.47;;;4.20;;
76477;SDS011;65309;49.790;18.972;2023-04-07T20:08:25;5.43;;;4.03;;
76477;SDS011;65309;49.790;18.972;2023-04-07T20:13:27;6.53;;;3.92;;
76477;SDS011;65309;49.790;18.972;2023-04-07T20:18:32;6.78;;;3.95;;
76477;SDS011;65309;49.790;18.972;2023-04-07T20:23:35;4.05;;;2.92;;
76477;SDS011;65309;49.790;18.972;2023-04-07T20:28:38;15.05;;;6.32;;
76477;SDS011;65309;49.790;18.972;2023-04-07T20:33:40;9.85;;;5.50;;
76477;SDS011;65309;49.790;18.972;2023-04-07T20:38:43;9.57;;;5.00;;
76477;SDS011;65309;49.790;18.972;2023-04-07T20:43:45;8.07;;;5.72;;
76477;SDS011;65309;49.790;18.972;2023-04-07T20:48:47;6.82;;;5.00;;
76477;SDS011;65309;49.790;18.972;2023-04-07T20:53:51;7.32;;;5.20;;
76477;SDS011;65309;49.790;18.972;2023-04-07T20:58:53;11.20;;;5.90;;
76477;SDS011;65309;49.790;18.972;2023-04-07T21:03:55;6.63;;;4.93;;
76477;SDS011;65309;49.790;18.972;2023-04-07T21:08:58;7.70;;;5.43;;
76477;SDS011;65309;49.790;18.972;2023-04-07T21:14:01;8.60;;;5.88;;
76477;SDS011;65309;49.790;18.972;2023-04-07T21:19:02;6.95;;;3.92;;
76477;SDS011;65309;49.790;18.972;2023-04-07T21:24:07;7.65;;;4.65;;
76477;SDS011;65309;49.790;18.972;2023-04-07T21:29:08;11.10;;;5.00;;
76477;SDS011;65309;49.790;18.972;2023-04-07T21:34:11;6.93;;;3.67;;
76477;SDS011;65309;49.790;18.972;2023-04-07T21:39:14;8.45;;;5.97;;
76477;SDS011;65309;49.790;18.972;2023-04-07T21:44:16;16.65;;;8.57;;
76477;SDS011;65309;49.790;18.972;2023-04-07T21:49:20;22.95;;;9.43;;
76477;SDS011;65309;49.790;18.972;2023-04-07T21:54:24;11.13;;;6.80;;
76477;SDS011;65309;49.790;18.972;2023-04-07T21:59:26;18.40;;;10.02;;
76477;SDS011;65309;49.790;18.972;2023-04-07T22:04:28;21.23;;;12.75;;
76477;SDS011;65309;49.790;18.972;2023-04-07T22:09:32;18.52;;;11.40;;
76477;SDS011;65309;49.790;18.972;2023-04-07T22:14:34;20.15;;;13.15;;
76477;SDS011;65309;49.790;18.972;2023-04-07T22:19:36;34.20;;;16.85;;
76477;SDS011;65309;49.790;18.972;2023-04-07T22:24:39;37.17;;;16.30;;
76477;SDS011;65309;49.790;18.972;2023-04-07T22:29:41;31.30;;;17.45;;
76477;SDS011;65309;49.790;18.972;2023-04-07T22:34:43;40.55;;;20.17;;
76477;SDS011;65309;49.790;18.972;2023-04-07T22:39:48;30.00;;;17.42;;
76477;SDS011;65309;49.790;18.972;2023-04-07T22:44:50;30.88;;;16.67;;
76477;SDS011;65309;49.790;18.972;2023-04-07T22:49:57;36.90;;;19.13;;
76477;SDS011;65309;49.790;18.972;2023-04-07T22:55:06;33.22;;;17.10;;
76477;SDS011;65309;49.790;18.972;2023-04-07T23:06:59;24.70;;;14.90;;
76477;SDS011;65309;49.790;18.972;2023-04-07T23:12:03;15.18;;;8.85;;
76477;SDS011;65309;49.790;18.972;2023-04-07T23:17:05;29.70;;;18.42;;
76477;SDS011;65309;49.790;18.972;2023-04-07T23:22:07;31.08;;;17.02;;
76477;SDS011;65309;49.790;18.972;2023-04-07T23:27:10;57.10;;;25.33;;
76477;SDS011;65309;49.790;18.972;2023-04-07T23:33:10;29.40;;;15.35;;
76477;SDS011;65309;49.790;18.972;2023-04-07T23:45:14;36.38;;;18.65;;
76477;SDS011;65309;49.790;18.972;2023-04-07T23:51:15;53.40;;;28.58;;
76477;SDS011;65309;49.790;18.972;2023-04-07T23:57:16;33.58;;;19.27;;
